createdAt,value
2022-12-08T00:03:28.329Z,8.50
2022-12-08T00:11:04.072Z,8.55
2022-12-08T00:18:38.475Z,8.73
2022-12-08T00:26:13.511Z,7.97
2022-12-08T00:33:47.338Z,9.35
2022-12-08T00:41:44.479Z,8.05
2022-12-08T00:49:18.875Z,8.93
2022-12-08T00:56:54.674Z,10.40
2022-12-08T01:04:28.618Z,9.40
2022-12-08T01:12:03.831Z,7.85
2022-12-08T01:19:38.933Z,9.60
2022-12-08T01:27:16.581Z,10.43
2022-12-08T01:34:50.320Z,5.45
2022-12-08T01:42:26.399Z,6.90
2022-12-08T01:50:01.582Z,6.55
2022-12-08T01:57:43.559Z,8.73
2022-12-08T02:05:19.411Z,10.25
2022-12-08T02:12:56.898Z,8.27
2022-12-08T02:20:43.082Z,8.80
2022-12-08T02:28:45.833Z,9.25
2022-12-08T02:36:25.367Z,8.00
2022-12-08T02:44:06.621Z,8.68
2022-12-08T02:51:42.057Z,10.23
2022-12-08T02:59:34.961Z,7.68
2022-12-08T03:07:16.126Z,9.27
2022-12-08T03:14:55.084Z,8.88
2022-12-08T03:22:30.545Z,7.53
2022-12-08T03:30:05.299Z,6.85
2022-12-08T03:37:41.690Z,6.63
2022-12-08T03:45:15.589Z,7.72
2022-12-08T03:52:50.923Z,10.38
2022-12-08T04:00:25.407Z,10.02
2022-12-08T04:08:01.288Z,10.82
2022-12-08T04:15:35.494Z,11.63
2022-12-08T04:30:46.631Z,14.60
2022-12-08T04:38:21.889Z,12.75
2022-12-08T04:45:55.633Z,16.80
2022-12-08T04:53:30.757Z,15.80
2022-12-08T05:01:04.801Z,18.05
2022-12-08T05:08:40.233Z,18.80
2022-12-08T05:16:15.938Z,18.45
2022-12-08T05:23:51.292Z,19.80
2022-12-08T05:31:26.485Z,14.80
2022-12-08T05:39:01.744Z,18.63
2022-12-08T05:46:35.877Z,20.33
2022-12-08T05:54:11.292Z,22.92
2022-12-08T06:01:46.171Z,21.60
2022-12-08T06:09:21.930Z,20.52
2022-12-08T06:16:55.999Z,19.00
2022-12-08T06:24:31.435Z,14.88
2022-12-08T06:32:05.695Z,18.70
2022-12-08T06:39:41.102Z,22.88
2022-12-08T06:47:15.184Z,18.42
2022-12-08T06:54:50.513Z,20.83
2022-12-08T07:02:25.406Z,20.20
2022-12-08T07:10:00.735Z,17.45
2022-12-08T07:17:34.636Z,24.80
2022-12-08T07:25:10.614Z,31.85
2022-12-08T07:32:44.807Z,26.75
2022-12-08T07:40:20.262Z,16.52
2022-12-08T07:47:54.161Z,18.90
2022-12-08T07:55:29.438Z,22.63
2022-12-08T08:03:04.045Z,19.77
2022-12-08T08:10:39.349Z,17.92
2022-12-08T08:18:13.269Z,16.13
2022-12-08T08:25:48.775Z,19.42
2022-12-08T08:33:23.119Z,25.20
2022-12-08T08:48:33.141Z,23.38
2022-12-08T08:56:12.285Z,22.55
2022-12-08T09:03:48.082Z,24.85
2022-12-08T09:11:24.366Z,24.75
2022-12-08T09:18:58.294Z,21.80
2022-12-08T09:26:33.613Z,20.23
2022-12-08T09:34:07.599Z,18.83
2022-12-08T09:41:50.056Z,22.23
2022-12-08T09:49:28.063Z,22.88
2022-12-08T09:57:08.700Z,20.02
2022-12-08T10:04:43.609Z,19.27
2022-12-08T10:12:27.283Z,24.13
2022-12-08T10:20:07.855Z,22.05
2022-12-08T10:27:43.272Z,20.45
2022-12-08T10:35:18.959Z,18.73
2022-12-08T10:42:57.414Z,17.75
2022-12-08T10:50:34.510Z,20.92
2022-12-08T10:58:25.041Z,19.58
2022-12-08T11:06:08.969Z,14.35
2022-12-08T11:13:46.011Z,19.65
2022-12-08T11:21:21.093Z,20.77
2022-12-08T11:28:57.325Z,19.75
2022-12-08T11:36:36.888Z,18.33
2022-12-08T11:44:27.050Z,16.42
2022-12-08T11:52:05.371Z,18.33
2022-12-08T11:59:44.463Z,21.05
2022-12-08T12:07:50.746Z,15.10
2022-12-08T12:15:47.485Z,16.02
2022-12-08T12:23:25.492Z,18.13
2022-12-08T12:31:04.277Z,18.45
2022-12-08T12:38:58.169Z,15.77
2022-12-08T12:46:56.991Z,14.82
2022-12-08T12:54:31.061Z,19.85
2022-12-08T13:02:20.681Z,15.60
2022-12-08T13:10:01.910Z,19.80
2022-12-08T13:17:38.814Z,20.90
2022-12-08T13:26:01.719Z,19.05
2022-12-08T13:33:40.847Z,17.40
2022-12-08T13:41:19.608Z,17.65
2022-12-08T13:57:11.973Z,20.95
2022-12-08T14:12:46.848Z,18.67
2022-12-08T14:20:25.609Z,15.25
2022-12-08T14:28:02.835Z,13.50
2022-12-08T14:35:39.890Z,13.02
2022-12-08T14:43:19.608Z,11.00
2022-12-08T14:51:02.897Z,10.52
2022-12-08T14:58:36.881Z,14.65
2022-12-08T15:06:12.238Z,11.20
2022-12-08T15:13:48.087Z,11.07
2022-12-08T15:21:31.746Z,15.15
2022-12-08T15:29:12.824Z,16.70
2022-12-08T15:36:48.524Z,11.93
2022-12-08T15:44:23.230Z,13.75
2022-12-08T15:59:50.425Z,11.73
2022-12-08T16:07:28.376Z,13.90
2022-12-08T16:15:48.635Z,13.68
2022-12-08T16:23:13.040Z,11.02
2022-12-08T16:30:51.886Z,11.75
2022-12-08T16:38:27.504Z,12.27
2022-12-08T16:46:01.585Z,15.57
2022-12-08T16:53:36.936Z,13.20
2022-12-08T17:01:13.382Z,13.18
2022-12-08T17:08:48.978Z,13.15
2022-12-08T17:16:23.366Z,17.88
2022-12-08T17:24:00.101Z,15.30
2022-12-08T17:31:34.362Z,18.02
2022-12-08T17:39:13.434Z,16.83
2022-12-08T17:46:53.219Z,17.95
2022-12-08T17:54:29.980Z,14.13
2022-12-08T18:02:04.601Z,17.00
2022-12-08T18:09:40.077Z,15.43
2022-12-08T18:17:14.353Z,15.80
2022-12-08T18:24:50.228Z,15.00
2022-12-08T18:32:24.355Z,16.23
2022-12-08T18:39:59.648Z,19.63
2022-12-08T18:47:34.276Z,16.25
2022-12-08T18:55:11.015Z,18.30
2022-12-08T19:02:45.258Z,17.48
2022-12-08T19:17:54.570Z,17.45
2022-12-08T19:25:29.944Z,16.48
2022-12-08T19:33:03.773Z,18.17
2022-12-08T19:40:59.558Z,24.30
2022-12-08T19:48:33.706Z,20.10
2022-12-08T19:56:09.719Z,21.77
2022-12-08T20:03:44.944Z,22.45
2022-12-08T20:11:21.144Z,20.85
2022-12-08T20:18:55.645Z,18.98
2022-12-08T20:26:33.903Z,23.52
2022-12-08T20:34:13.582Z,19.58
2022-12-08T20:41:49.321Z,19.20
2022-12-08T20:49:26.329Z,17.75
2022-12-08T20:57:05.486Z,23.40
2022-12-08T21:04:39.523Z,23.63
2022-12-08T21:12:14.804Z,20.35
2022-12-08T21:19:49.090Z,20.17
2022-12-08T21:34:58.760Z,20.10
2022-12-08T21:42:46.179Z,22.45
2022-12-08T21:50:20.639Z,22.73
2022-12-08T22:05:31.209Z,22.00
2022-12-08T22:13:06.575Z,26.13
2022-12-08T22:20:44.102Z,19.20
2022-12-08T22:28:19.685Z,23.95
2022-12-08T22:35:57.483Z,21.90
2022-12-08T22:43:32.867Z,24.60
2022-12-08T22:51:08.094Z,20.77
2022-12-08T22:58:44.484Z,21.75
2022-12-08T23:06:19.174Z,23.70
2022-12-08T23:13:56.247Z,26.08
2022-12-08T23:21:31.109Z,29.17
2022-12-08T23:29:06.417Z,32.05
2022-12-08T23:36:40.368Z,34.35
2022-12-08T23:44:15.509Z,36.10
2022-12-08T23:51:50.387Z,33.58
2022-12-08T23:59:25.600Z,32.85
